Time;durP1;ratioP1;P1;durP2;ratioP2;P2;SDS_P1;SDS_P2;PMS_P1;PMS_P2;Temp;Humidity;BMP_temperature;BMP_pressure;BME280_temperature;BME280_humidity;BME280_pressure;Samples;Min_cycle;Max_cycle;Signal;HPM_P1;HPM_P2
2023/03/26 00:00:16;;;;;;;20.75;4.78;;;;;;;16.27;47.49;100768.38;6135494;23;20036;-82
2023/03/26 00:02:53;;;;;;;14.45;3.42;;;;;;;15.20;47.78;100592.78;6128815;23;20112;-81
2023/03/26 00:05:37;;;;;;;12.60;3.75;;;;;;;16.07;47.53;100740.28;6133452;23;20630;-84
2023/03/26 00:08:18;;;;;;;13.90;4.03;;;;;;;15.58;47.69;100667.00;6117231;23;20036;-83
2023/03/26 00:10:49;;;;;;;11.25;3.30;;;;;;;16.02;48.19;100743.50;6125763;23;20017;-82
2023/03/26 00:13:25;;;;;;;19.13;3.88;;;;;;;15.95;47.99;100731.78;6145553;23;20676;-82
2023/03/26 00:15:57;;;;;;;12.02;3.72;;;;;;;16.24;47.76;100766.88;6137080;23;20115;-81
2023/03/26 00:18:34;;;;;;;9.90;3.60;;;;;;;16.13;48.11;100761.03;6128695;23;20025;-84
2023/03/26 00:21:20;;;;;;;12.10;3.33;;;;;;;15.74;47.86;100681.41;6122522;23;20303;-83
2023/03/26 00:23:48;;;;;;;10.52;3.58;;;;;;;14.82;47.98;100541.63;6143407;23;20029;-82
2023/03/26 00:26:17;;;;;;;12.77;3.95;;;;;;;15.18;48.31;100607.13;6162662;23;20076;-81
2023/03/26 00:28:44;;;;;;;14.82;3.15;;;;;;;15.53;48.48;100689.91;6117248;23;20322;-81
2023/03/26 00:31:31;;;;;;;12.32;3.28;;;;;;;15.99;48.90;100778.59;6120650;23;20021;-83
2023/03/26 00:34:23;;;;;;;14.55;3.55;;;;;;;15.29;48.51;100645.25;6120923;23;20369;-82
2023/03/26 00:37:07;;;;;;;15.90;3.67;;;;;;;15.74;48.71;100698.31;6121435;23;20130;-80
2023/03/26 00:39:38;;;;;;;12.80;3.67;;;;;;;16.08;48.64;100769.56;6162524;23;20028;-81
2023/03/26 00:42:15;;;;;;;13.85;4.00;;;;;;;15.22;48.94;100631.72;6124811;23;20229;-82
2023/03/26 00:44:50;;;;;;;14.02;3.17;;;;;;;15.81;48.36;100731.44;6127605;23;20021;-83
2023/03/26 00:47:30;;;;;;;10.43;3.40;;;;;;;15.89;48.14;100727.91;6125736;23;20136;-82
2023/03/26 00:50:00;;;;;;;14.55;3.78;;;;;;;15.32;48.56;100645.78;6132616;23;20017;-82
2023/03/26 00:52:37;;;;;;;19.25;4.00;;;;;;;15.59;48.17;100687.41;6159383;23;20024;-83
2023/03/26 00:55:05;;;;;;;9.25;3.30;;;;;;;15.94;48.44;100752.34;6134348;23;20369;-83
2023/03/26 00:57:41;;;;;;;15.68;3.60;;;;;;;15.54;48.71;100695.09;6135506;23;20121;-83
2023/03/26 01:00:14;;;;;;;13.27;3.90;;;;;;;15.94;48.33;100746.97;6134130;23;20013;-83
2023/03/26 01:02:47;;;;;;;16.08;4.25;;;;;;;15.90;49.31;100761.72;6164373;23;20558;-82
2023/03/26 01:05:52;;;;;;;11.70;3.90;;;;;;;14.77;49.64;100602.75;6144995;23;20437;-82
2023/03/26 01:08:35;;;;;;;16.50;3.92;;;;;;;14.05;49.53;100505.19;5999286;23;20050;-82
2023/03/26 01:11:19;;;;;;;12.00;4.90;;;;;;;15.46;50.24;100737.91;6147070;23;20021;-83
2023/03/26 01:13:57;;;;;;;14.48;4.82;;;;;;;14.73;50.49;100623.59;6120671;23;20028;-83
2023/03/26 01:16:33;;;;;;;14.60;4.22;;;;;;;14.64;50.30;100616.56;6140125;23;20021;-81
2023/03/26 01:19:00;;;;;;;15.95;4.70;;;;;;;14.24;49.96;100543.28;6120606;23;20024;-83
2023/03/26 01:21:29;;;;;;;13.10;4.25;;;;;;;14.88;50.72;100669.22;6134387;23;20160;-82
2023/03/26 01:24:08;;;;;;;11.73;5.13;;;;;;;14.19;50.70;100557.13;6133970;23;20267;-81
2023/03/26 01:27:10;;;;;;;12.18;5.15;;;;;;;15.32;51.39;100747.41;6124261;23;20368;-82
2023/03/26 01:29:43;;;;;;;15.55;4.97;;;;;;;15.28;51.46;100747.91;6131309;23;20028;-81
2023/03/26 01:32:24;;;;;;;11.00;5.10;;;;;;;14.93;52.23;100709.69;6137230;23;20092;-82
2023/03/26 01:35:16;;;;;;;14.73;6.03;;;;;;;14.90;53.48;100734.06;6137300;23;20039;-82
2023/03/26 01:37:52;;;;;;;17.83;5.43;;;;;;;14.54;53.32;100667.47;6134120;23;20021;-82
2023/03/26 01:40:28;;;;;;;18.45;6.38;;;;;;;14.87;53.62;100729.03;6128027;23;20239;-81
2023/03/26 01:43:44;;;;;;;16.15;5.80;;;;;;;14.72;54.22;100715.47;6129480;23;20017;-83
2023/03/26 01:46:16;;;;;;;16.85;6.25;;;;;;;14.29;53.47;100621.91;6037368;23;20037;-83
2023/03/26 01:48:44;;;;;;;15.13;5.65;;;;;;;13.68;53.59;100533.03;6015502;23;20027;-82
2023/03/26 01:51:30;;;;;;;20.02;6.25;;;;;;;13.77;54.56;100557.94;6088570;23;20020;-80
2023/03/26 01:53:57;;;;;;;12.45;7.05;;;;;;;14.58;54.71;100700.03;6157589;23;20028;-83
2023/03/26 01:56:56;;;;;;;14.93;7.45;;;;;;;14.60;55.73;100720.25;6141178;23;20017;-81
2023/03/26 02:00:19;;;;;;;18.20;6.75;;;;;;;14.53;56.47;100722.72;6031641;23;20030;-81
2023/03/26 02:03:16;;;;;;;;;;;;;;;14.44;56.87;100725.47;6012578;23;20479;-83
2023/03/26 02:06:14;;;;;;;16.58;9.52;;;;;;;14.28;58.16;100719.03;6061381;23;20052;-81
2023/03/26 02:09:24;;;;;;;21.08;11.52;;;;;;;14.17;59.95;100724.63;6011303;23;20294;-82
2023/03/26 02:11:52;;;;;;;19.80;11.63;;;;;;;14.06;60.02;100724.91;6085086;23;20048;-82
2023/03/26 02:14:19;;;;;;;23.88;13.10;;;;;;;13.83;60.95;100706.72;6152608;23;20326;-81
2023/03/26 02:16:55;;;;;;;24.65;14.27;;;;;;;13.71;62.29;100707.94;6131081;23;20121;-82
2023/03/26 02:19:27;;;;;;;21.67;13.45;;;;;;;13.24;62.64;100649.50;6132478;23;20263;-82
2023/03/26 02:22:17;;;;;;;25.67;14.60;;;;;;;12.79;63.39;100591.78;6131664;23;20067;-83
2023/03/26 02:24:44;;;;;;;23.42;15.13;;;;;;;13.45;64.67;100722.06;6131833;23;20314;-83
2023/03/26 02:27:22;;;;;;;25.80;15.80;;;;;;;13.25;64.85;100694.69;6119531;23;20096;-82
2023/03/26 02:29:57;;;;;;;29.90;15.88;;;;;;;13.30;64.82;100710.28;6124174;23;20020;-81
2023/03/26 02:32:24;;;;;;;26.15;15.93;;;;;;;13.31;64.45;100711.09;6094066;23;20511;-82
2023/03/26 02:34:58;;;;;;;33.42;15.95;;;;;;;13.22;65.39;100712.81;6097295;23;20025;-82
2023/03/26 02:37:32;;;;;;;22.35;15.48;;;;;;;12.87;65.22;100631.84;6130070;23;20209;-82
2023/03/26 02:40:05;;;;;;;21.85;15.18;;;;;;;13.01;65.89;100668.63;6116903;23;20021;-81
2023/03/26 02:42:34;;;;;;;29.95;16.33;;;;;;;13.02;66.08;100688.94;6103265;23;20025;-84
2023/03/26 02:45:07;;;;;;;28.95;16.73;;;;;;;13.07;65.94;100690.31;6110439;23;20021;-83
2023/03/26 02:47:35;;;;;;;25.02;15.77;;;;;;;13.06;66.30;100697.50;6124062;23;20216;-81
2023/03/26 02:50:03;;;;;;;26.45;16.63;;;;;;;12.98;65.86;100684.06;6116955;23;20051;-81
2023/03/26 02:52:30;;;;;;;38.70;17.08;;;;;;;12.69;66.68;100637.13;6106497;23;20398;-81
2023/03/26 02:55:09;;;;;;;23.35;16.27;;;;;;;12.84;66.38;100669.44;6111031;23;20017;-82
2023/03/26 02:57:48;;;;;;;30.33;16.50;;;;;;;13.13;66.17;100708.38;6114242;23;20108;-83
2023/03/26 03:00:16;;;;;;;24.33;16.92;;;;;;;13.11;66.42;100699.72;6102605;23;20390;-82
2023/03/26 03:02:46;;;;;;;25.92;16.50;;;;;;;13.04;66.97;100700.28;6130265;23;20029;-81
2023/03/26 03:05:18;;;;;;;27.48;17.40;;;;;;;13.03;65.83;100682.63;6126550;23;20048;-83
2023/03/26 03:07:45;;;;;;;27.42;17.58;;;;;;;12.77;67.23;100660.38;6116550;23;20249;-82
2023/03/26 03:10:15;;;;;;;30.77;17.08;;;;;;;13.02;67.01;100704.94;6123587;23;20071;-83
2023/03/26 03:12:41;;;;;;;32.13;17.50;;;;;;;12.94;66.83;100667.53;6129967;23;20079;-81
2023/03/26 03:15:11;;;;;;;28.45;17.98;;;;;;;12.99;65.47;100659.94;6116532;23;20611;-82
2023/03/26 03:17:49;;;;;;;26.45;17.45;;;;;;;12.89;66.13;100668.97;6119691;23;20025;-82
2023/03/26 03:20:20;;;;;;;27.77;17.55;;;;;;;12.99;66.26;100686.59;6105757;23;20013;-82
2023/03/26 03:22:47;;;;;;;31.27;17.67;;;;;;;13.01;67.04;100715.72;6133467;23;20017;-82
2023/03/26 03:25:24;;;;;;;29.38;17.77;;;;;;;12.92;66.66;100684.69;6078263;23;20369;-82
2023/03/26 03:28:00;;;;;;;27.70;18.15;;;;;;;12.83;66.93;100676.56;6064233;23;20121;-82
2023/03/26 03:30:31;;;;;;;27.60;18.52;;;;;;;12.90;66.59;100684.81;6059984;23;20159;-82
2023/03/26 03:33:02;;;;;;;26.77;19.55;;;;;;;12.89;66.42;100685.81;6115207;23;20262;-83
2023/03/26 03:35:33;;;;;;;32.55;18.75;;;;;;;12.86;67.60;100714.56;6096292;23;20017;-82
2023/03/26 03:38:01;;;;;;;31.05;19.42;;;;;;;12.45;68.38;100661.66;6113369;23;20132;-82
2023/03/26 03:40:35;;;;;;;34.55;20.05;;;;;;;12.30;68.08;100647.13;6066770;23;20423;-82
2023/03/26 03:43:11;;;;;;;34.80;20.17;;;;;;;12.71;68.27;100707.06;6030222;23;20187;-82
2023/03/26 03:45:50;;;;;;;31.65;21.60;;;;;;;12.52;68.02;100678.69;6073002;23;20455;-80
2023/03/26 03:48:30;;;;;;;31.05;20.30;;;;;;;12.64;68.41;100705.97;6130116;23;20421;-82
2023/03/26 03:51:05;;;;;;;30.45;20.63;;;;;;;12.61;68.44;100699.13;6114619;23;20028;-83
2023/03/26 03:53:39;;;;;;;32.25;19.85;;;;;;;12.29;68.79;100667.59;6133867;23;20023;-83
2023/03/26 03:56:08;;;;;;;27.80;19.63;;;;;;;12.54;68.91;100708.69;6116772;23;20021;-84
2023/03/26 03:58:46;;;;;;;31.60;20.83;;;;;;;12.24;68.23;100651.22;6105214;23;20052;-83
2023/03/26 04:01:17;;;;;;;30.15;19.50;;;;;;;12.46;68.11;100667.81;6129897;23;20084;-84
2023/03/26 04:03:45;;;;;;;30.58;22.30;;;;;;;12.46;67.82;100676.63;6144084;23;20024;-80
2023/03/26 04:06:13;;;;;;;33.92;21.98;;;;;;;12.49;68.19;100678.16;6139179;23;20021;-81
2023/03/26 04:08:39;;;;;;;34.80;21.70;;;;;;;12.18;67.68;100634.03;6120480;23;20090;-83
2023/03/26 04:11:06;;;;;;;28.75;20.88;;;;;;;11.88;67.87;100591.69;6139095;23;20045;-84
2023/03/26 04:13:38;;;;;;;42.35;23.50;;;;;;;11.56;67.88;100560.97;6056940;23;20397;-83
2023/03/26 04:16:24;;;;;;;31.85;21.55;;;;;;;12.45;68.78;100714.91;6070709;23;20480;-82
2023/03/26 04:18:50;;;;;;;33.92;22.75;;;;;;;12.21;68.25;100674.63;6125943;23;20023;-82
2023/03/26 04:21:22;;;;;;;29.93;21.57;;;;;;;11.74;68.40;100593.78;6125210;23;20021;-83
2023/03/26 04:23:49;;;;;;;33.05;22.38;;;;;;;12.24;68.55;100685.00;6121902;23;20021;-80
2023/03/26 04:26:19;;;;;;;33.83;22.13;;;;;;;12.34;68.94;100709.75;6138573;23;20528;-83
2023/03/26 04:28:55;;;;;;;28.83;20.17;;;;;;;11.97;68.90;100631.56;6159836;23;20691;-82
2023/03/26 04:31:30;;;;;;;42.45;22.13;;;;;;;12.47;68.62;100699.59;6115606;23;20032;-83
2023/03/26 04:34:04;;;;;;;;;;;;;;;12.48;69.01;100709.28;6133610;23;20083;-84
2023/03/26 04:36:39;;;;;;;32.33;22.63;;;;;;;12.31;68.98;100696.75;6129823;23;20165;-83
2023/03/26 04:39:11;;;;;;;32.40;21.40;;;;;;;12.25;68.44;100668.84;6132129;23;20024;-81
2023/03/26 04:41:50;;;;;;;32.78;21.77;;;;;;;12.47;68.37;100693.44;6132323;23;20128;-80
2023/03/26 04:44:21;;;;;;;30.75;22.23;;;;;;;12.33;69.02;100695.59;6113229;23;20319;-83
2023/03/26 04:46:51;;;;;;;34.75;21.67;;;;;;;12.44;68.63;100697.22;6143533;23;20423;-81
2023/03/26 04:49:18;;;;;;;35.53;23.08;;;;;;;12.07;69.49;100652.00;6119774;23;20413;-83
2023/03/26 04:51:59;;;;;;;35.40;22.70;;;;;;;12.36;68.78;100678.50;6051910;23;20017;-83
2023/03/26 04:54:30;;;;;;;;;;;;;;;12.35;69.38;100703.44;6077668;23;20023;-83
2023/03/26 04:57:06;;;;;;;34.85;22.23;;;;;;;12.28;69.50;100702.34;6127413;23;20325;-83
2023/03/26 04:59:44;;;;;;;37.13;22.25;;;;;;;12.03;68.77;100638.13;6118609;23;20047;-83
2023/03/26 05:02:16;;;;;;;35.75;22.92;;;;;;;12.16;68.96;100651.97;6150067;23;20293;-83
2023/03/26 05:05:01;;;;;;;37.78;23.13;;;;;;;12.40;68.92;100685.19;6117410;23;20135;-83
2023/03/26 05:07:32;;;;;;;35.15;22.17;;;;;;;12.19;69.42;100667.63;6123712;23;20025;-81
2023/03/26 05:10:03;;;;;;;32.85;22.23;;;;;;;11.92;69.91;100612.53;6125116;23;20220;-82
2023/03/26 05:12:37;;;;;;;37.72;21.20;;;;;;;12.25;69.50;100665.38;6116702;23;20457;-82
2023/03/26 05:15:08;;;;;;;34.50;21.17;;;;;;;12.56;68.50;100669.44;6163312;23;20021;-82
2023/03/26 05:17:55;;;;;;;29.58;21.30;;;;;;;12.34;69.28;100637.88;6094421;23;20021;-83
2023/03/26 05:20:29;;;;;;;34.03;22.67;;;;;;;12.36;69.82;100679.34;6127507;23;20087;-84
2023/03/26 05:23:01;;;;;;;31.15;21.80;;;;;;;12.32;69.49;100661.97;6161184;23;20067;-83
2023/03/26 05:25:36;;;;;;;35.47;21.30;;;;;;;12.43;69.27;100663.63;6134013;23;20509;-83
2023/03/26 05:28:05;;;;;;;35.72;21.90;;;;;;;12.37;69.77;100661.53;6136881;23;20017;-84
2023/03/26 05:30:42;;;;;;;42.50;21.55;;;;;;;12.25;69.21;100628.09;6131155;23;20256;-81
2023/03/26 05:33:29;;;;;;;36.72;22.65;;;;;;;11.06;69.81;100444.28;6128750;23;20313;-82
2023/03/26 05:36:03;;;;;;;36.65;22.38;;;;;;;12.35;69.89;100663.50;6126731;23;20249;-82
2023/03/26 05:38:33;;;;;;;35.25;20.70;;;;;;;12.43;69.27;100652.97;6107627;23;20055;-83
2023/03/26 05:41:05;;;;;;;33.97;22.02;;;;;;;12.25;70.37;100628.94;6166334;23;20041;-83
2023/03/26 05:43:33;;;;;;;34.25;19.88;;;;;;;11.52;68.96;100466.50;6163317;23;20414;-83
2023/03/26 05:46:06;;;;;;;30.92;21.05;;;;;;;12.35;69.47;100624.41;6127837;23;20181;-81
2023/03/26 05:48:33;;;;;;;37.75;22.10;;;;;;;12.06;70.32;100608.56;6132440;23;20059;-83
2023/03/26 05:51:00;;;;;;;34.60;21.50;;;;;;;12.25;70.19;100636.91;6120106;23;20614;-82
2023/03/26 05:53:27;;;;;;;37.28;23.05;;;;;;;12.36;69.82;100644.72;6123901;23;20021;-81
2023/03/26 05:55:56;;;;;;;29.67;19.92;;;;;;;12.36;70.59;100646.56;6153159;23;20025;-82
2023/03/26 05:58:25;;;;;;;40.63;22.70;;;;;;;12.34;69.77;100637.88;6126681;23;20025;-81
2023/03/26 06:01:08;;;;;;;36.92;22.38;;;;;;;12.44;69.51;100654.63;6133496;23;20258;-82
2023/03/26 06:03:41;;;;;;;36.83;19.35;;;;;;;12.52;68.92;100656.56;6122971;23;20028;-83
2023/03/26 06:06:16;;;;;;;33.20;20.58;;;;;;;12.49;69.60;100649.69;6130584;23;20377;-82
2023/03/26 06:08:52;;;;;;;35.08;20.65;;;;;;;12.51;68.85;100628.25;6153968;23;20241;-82
2023/03/26 06:11:33;;;;;;;34.47;18.88;;;;;;;12.72;69.07;100638.63;6124559;23;20021;-83
2023/03/26 06:14:01;;;;;;;37.97;19.98;;;;;;;12.73;68.60;100648.31;6136897;23;20406;-83
2023/03/26 06:16:28;;;;;;;36.80;19.05;;;;;;;12.39;68.66;100579.69;6147601;23;20057;-82
2023/03/26 06:18:57;;;;;;;25.67;16.92;;;;;;;12.79;68.26;100639.72;6137315;23;20271;-83
2023/03/26 06:21:27;;;;;;;32.33;18.63;;;;;;;12.89;67.81;100637.00;6126944;23;20318;-82
2023/03/26 06:23:57;;;;;;;30.90;19.40;;;;;;;13.12;68.02;100648.06;6133969;23;20221;-81
2023/03/26 06:26:26;;;;;;;33.80;19.65;;;;;;;13.09;67.87;100627.88;6130093;23;20032;-83
2023/03/26 06:28:58;;;;;;;28.80;16.50;;;;;;;12.71;67.85;100543.75;6139274;23;20021;-83
2023/03/26 06:31:26;;;;;;;27.92;15.18;;;;;;;12.99;66.52;100556.00;6133725;23;20184;-81
2023/03/26 06:33:55;;;;;;;33.80;17.13;;;;;;;13.12;66.61;100554.78;6160634;23;20025;-83
2023/03/26 06:36:22;;;;;;;25.25;16.52;;;;;;;13.12;66.87;100547.63;6134457;23;20134;-82
2023/03/26 06:38:51;;;;;;;31.95;18.52;;;;;;;12.85;67.21;100497.94;6125349;23;20595;-83
2023/03/26 06:41:18;;;;;;;30.02;18.10;;;;;;;13.31;67.01;100556.47;6124083;23;20024;-82
2023/03/26 06:43:44;;;;;;;35.53;17.70;;;;;;;13.50;67.07;100572.28;6137202;23;20102;-82
2023/03/26 06:46:17;;;;;;;34.05;18.65;;;;;;;13.60;66.70;100574.84;6125798;23;20028;-83
2023/03/26 06:48:46;;;;;;;33.03;17.50;;;;;;;13.81;66.77;100596.66;6162043;23;20028;-83
2023/03/26 06:51:17;;;;;;;30.00;15.07;;;;;;;13.70;66.53;100572.91;6124165;23;20307;-82
2023/03/26 06:53:46;;;;;;;23.73;12.52;;;;;;;14.02;65.98;100603.44;6121200;23;20465;-80
2023/03/26 06:56:13;;;;;;;34.22;14.27;;;;;;;14.03;66.09;100599.75;6140901;23;20704;-80
2023/03/26 06:58:40;;;;;;;23.85;6.63;;;;;;;14.44;63.47;100608.81;6119181;23;20270;-83
2023/03/26 07:01:07;;;;;;;21.75;9.70;;;;;;;14.40;62.77;100590.59;6133717;23;20120;-80
2023/03/26 07:03:48;;;;;;;17.17;5.88;;;;;;;14.50;61.56;100549.38;6128208;23;20158;-81
2023/03/26 07:06:45;;;;;;;16.98;4.68;;;;;;;14.95;59.92;100585.56;6138415;23;20338;-81
2023/03/26 07:09:12;;;;;;;28.92;5.68;;;;;;;14.74;59.65;100543.28;6126722;23;20040;-81
2023/03/26 07:11:45;;;;;;;18.77;5.18;;;;;;;15.01;59.14;100561.84;6118755;23;20053;-84
2023/03/26 07:14:16;;;;;;;14.75;4.70;;;;;;;15.08;58.33;100577.06;6101329;23;20241;-82
2023/03/26 07:16:47;;;;;;;12.85;4.30;;;;;;;14.64;58.78;100491.84;6077523;23;20028;-82
2023/03/26 07:19:18;;;;;;;22.98;12.70;;;;;;;15.16;60.32;100571.69;6106396;23;20409;-83
2023/03/26 07:21:59;;;;;;;24.50;13.68;;;;;;;14.07;61.20;100376.91;6139725;23;20021;-83
2023/03/26 07:24:29;;;;;;;25.55;12.65;;;;;;;15.29;61.10;100586.41;6128915;23;20024;-83
2023/03/26 07:27:28;;;;;;;24.60;9.85;;;;;;;14.94;60.13;100524.25;6129233;23;20338;-82
2023/03/26 07:30:02;;;;;;;23.10;7.10;;;;;;;15.45;59.69;100590.94;6132238;23;20021;-83
2023/03/26 07:32:50;;;;;;;24.27;10.48;;;;;;;15.51;60.54;100595.59;6148344;23;20413;-83
2023/03/26 07:35:42;;;;;;;25.58;11.13;;;;;;;15.52;60.96;100584.72;6110345;23;20634;-83
2023/03/26 07:38:21;;;;;;;27.40;12.98;;;;;;;15.37;62.40;100565.03;6130917;23;20365;-83
2023/03/26 07:41:05;;;;;;;33.00;17.33;;;;;;;15.56;64.10;100583.41;6123736;23;20021;-83
2023/03/26 07:43:53;;;;;;;41.42;21.50;;;;;;;15.57;65.17;100590.41;6127595;23;20021;-82
2023/03/26 07:46:30;;;;;;;33.22;20.45;;;;;;;15.26;64.89;100543.97;6139029;23;20492;-83
2023/03/26 07:49:00;;;;;;;38.30;23.50;;;;;;;15.54;65.22;100584.56;6170333;23;20017;-82
2023/03/26 07:51:29;;;;;;;33.85;21.15;;;;;;;15.45;63.50;100532.06;6122882;23;20056;-83
2023/03/26 07:53:59;;;;;;;37.30;20.42;;;;;;;15.66;63.99;100583.22;6136039;23;20476;-81
2023/03/26 07:56:40;;;;;;;38.35;20.38;;;;;;;15.60;63.88;100582.03;6150907;23;20029;-83
2023/03/26 07:59:36;;;;;;;39.05;21.25;;;;;;;14.86;63.79;100442.25;6132790;23;20413;-82
2023/03/26 08:02:21;;;;;;;38.47;22.85;;;;;;;15.25;65.32;100532.44;6118145;23;20376;-82
2023/03/26 08:05:09;;;;;;;;;;;;;;;15.43;66.61;100588.41;6123269;23;20229;-81
2023/03/26 08:08:19;;;;;;;37.78;20.75;;;;;;;15.36;65.00;100582.06;6157859;23;20284;-83
2023/03/26 08:11:42;;;;;;;31.65;20.40;;;;;;;15.33;65.55;100582.41;6119711;23;20072;-82
2023/03/26 08:14:31;;;;;;;;;;;;;;;15.38;66.09;100574.72;6127761;23;20021;-82
2023/03/26 08:17:21;;;;;;;37.13;22.15;;;;;;;15.10;65.72;100512.72;6134258;23;19915;-83
2023/03/26 08:20:10;;;;;;;31.80;19.02;;;;;;;15.50;64.56;100561.81;6140900;23;20550;-82
2023/03/26 08:22:40;;;;;;;40.08;20.48;;;;;;;15.48;64.25;100558.47;6132839;23;20021;-82
2023/03/26 08:25:10;;;;;;;29.08;18.88;;;;;;;15.45;64.59;100558.81;6157834;23;20024;-84
2023/03/26 08:27:57;;;;;;;44.03;21.52;;;;;;;15.16;65.22;100490.66;6126087;23;20029;-82
2023/03/26 08:30:26;;;;;;;36.20;22.38;;;;;;;15.54;65.64;100534.56;6163546;23;20302;-80
2023/03/26 08:33:31;;;;;;;34.20;21.85;;;;;;;14.21;65.89;100314.84;6136713;23;20161;-80
2023/03/26 08:36:45;;;;;;;32.70;21.17;;;;;;;14.55;66.20;100350.41;6101791;23;20332;-82
2023/03/26 08:39:23;;;;;;;38.30;22.40;;;;;;;15.77;65.78;100531.19;6072060;23;20022;-82
2023/03/26 08:42:08;;;;;;;35.80;21.20;;;;;;;15.92;65.68;100512.56;6064192;23;20058;-81
2023/03/26 08:44:47;;;;;;;38.67;21.17;;;;;;;14.75;65.76;100320.47;6069270;23;20022;-82
2023/03/26 08:47:44;;;;;;;31.15;20.80;;;;;;;15.49;64.98;100440.59;6041433;23;20026;-82
2023/03/26 08:50:29;;;;;;;34.47;20.20;;;;;;;15.98;64.50;100523.41;6078258;23;20371;-80
2023/03/26 08:53:31;;;;;;;31.65;19.65;;;;;;;16.02;64.75;100519.41;6066139;23;20022;-82
2023/03/26 08:56:21;;;;;;;33.08;20.25;;;;;;;16.05;64.78;100528.09;6051415;23;20025;-81
2023/03/26 08:59:34;;;;;;;30.83;19.73;;;;;;;15.70;65.29;100468.66;6050404;23;20155;-83
2023/03/26 09:02:51;;;;;;;41.47;18.08;;;;;;;16.05;65.30;100504.81;5992077;23;20025;-82
2023/03/26 09:06:01;;;;;;;41.38;18.35;;;;;;;16.13;64.86;100509.31;6070904;23;20117;-83
2023/03/26 09:08:49;;;;;;;31.30;16.80;;;;;;;16.16;64.43;100509.78;6155017;23;20092;-82
2023/03/26 09:12:02;;;;;;;36.55;17.50;;;;;;;16.45;64.20;100492.19;6148313;23;20021;-82
2023/03/26 09:15:05;;;;;;;28.40;15.38;;;;;;;16.51;63.05;100485.31;6135614;23;20377;-81
2023/03/26 09:17:53;;;;;;;22.15;6.20;;;;;;;16.09;56.02;100341.94;6102990;23;20112;-83
2023/03/26 09:21:03;;;;;;;12.38;4.82;;;;;;;17.27;53.78;100487.03;6159414;23;20303;-83
2023/03/26 09:23:56;;;;;;;19.38;5.45;;;;;;;17.38;53.18;100476.88;6128303;23;20029;-83
2023/03/26 09:26:50;;;;;;;20.65;6.22;;;;;;;17.80;53.25;100475.41;6149503;23;20138;-83
2023/03/26 09:29:48;;;;;;;15.35;4.95;;;;;;;17.95;50.82;100457.44;6111271;23;20067;-83
2023/03/26 09:32:31;;;;;;;15.70;6.38;;;;;;;17.99;52.05;100464.09;6126284;23;20021;-82
2023/03/26 09:35:52;;;;;;;18.10;10.32;;;;;;;18.03;55.11;100464.56;6162248;23;20083;-83
2023/03/26 09:38:54;;;;;;;26.25;12.23;;;;;;;18.04;55.86;100466.22;6084420;23;20033;-84
2023/03/26 09:41:39;;;;;;;;;;;;;;;18.10;56.76;100463.59;6139032;23;20067;-82
2023/03/26 09:45:20;;;;;;;25.38;10.75;;;;;;;18.11;57.03;100457.22;6134600;23;20240;-82
2023/03/26 09:48:17;;;;;;;21.05;10.25;;;;;;;18.26;56.63;100459.03;6112751;23;20025;-83
2023/03/26 09:51:28;;;;;;;21.90;9.40;;;;;;;18.44;56.47;100442.47;6147740;23;20028;-84
2023/03/26 09:54:43;;;;;;;22.60;10.65;;;;;;;18.60;55.21;100436.00;6113360;23;20437;-84
2023/03/26 09:57:56;;;;;;;12.38;6.20;;;;;;;18.43;53.85;100352.94;6129057;23;20017;-80
2023/03/26 10:00:42;;;;;;;30.30;8.82;;;;;;;19.00;53.15;100413.84;6120653;23;20091;-82
2023/03/26 10:03:28;;;;;;;25.50;8.45;;;;;;;19.15;54.11;100418.25;6117840;23;20060;-81
2023/03/26 10:06:34;;;;;;;17.40;7.55;;;;;;;19.42;53.55;100413.88;6136697;23;20076;-81
2023/03/26 10:09:29;;;;;;;16.60;6.80;;;;;;;19.59;53.23;100404.44;6165896;23;20104;-82
2023/03/26 10:12:15;;;;;;;19.00;6.75;;;;;;;19.81;52.46;100412.44;6134879;23;20538;-83
2023/03/26 10:15:05;;;;;;;15.25;6.70;;;;;;;20.11;51.61;100404.00;6131465;23;20096;-83
2023/03/26 10:17:45;;;;;;;21.25;5.82;;;;;;;19.98;47.86;100340.16;6130162;23;20496;-83
2023/03/26 10:20:43;;;;;;;14.90;5.35;;;;;;;20.71;46.06;100399.56;6126952;23;20025;-82
2023/03/26 10:23:22;;;;;;;18.50;5.28;;;;;;;20.59;42.80;100342.72;6150281;23;20099;-81
2023/03/26 10:26:28;;;;;;;13.75;4.95;;;;;;;21.13;45.77;100395.53;6131602;23;20024;-80
2023/03/26 10:29:29;;;;;;;22.55;6.63;;;;;;;21.33;46.59;100391.97;6023809;23;20023;-81
2023/03/26 10:32:16;;;;;;;18.98;6.38;;;;;;;21.12;46.00;100333.69;6148684;23;20029;-82
2023/03/26 10:35:19;;;;;;;15.02;5.63;;;;;;;21.77;45.49;100368.75;6141692;23;20025;-82
2023/03/26 10:38:07;;;;;;;17.33;5.40;;;;;;;22.00;44.51;100375.53;6138838;23;20084;-82
2023/03/26 10:41:10;;;;;;;17.40;5.93;;;;;;;21.95;44.06;100371.59;6137495;23;20025;-81
2023/03/26 10:43:59;;;;;;;14.25;5.28;;;;;;;22.00;43.08;100365.53;6126601;23;20021;-80
2023/03/26 10:47:12;;;;;;;11.23;4.78;;;;;;;22.01;43.01;100344.72;6148963;23;20020;-82
2023/03/26 10:50:08;;;;;;;9.93;4.13;;;;;;;22.34;41.37;100342.66;6174242;23;20029;-82
2023/03/26 10:53:48;;;;;;;17.35;3.78;;;;;;;22.51;37.76;100331.28;6150214;23;20683;-82
2023/03/26 10:56:39;;;;;;;6.72;3.05;;;;;;;22.76;37.49;100336.66;6162646;23;20133;-83
2023/03/26 10:59:13;;;;;;;11.75;3.15;;;;;;;22.79;37.10;100342.47;6146153;23;20013;-81
2023/03/26 11:01:43;;;;;;;8.82;3.83;;;;;;;22.80;36.92;100338.72;6120706;23;20331;-83
2023/03/26 11:04:51;;;;;;;10.35;3.30;;;;;;;23.02;35.76;100327.47;6141231;23;20013;-83
2023/03/26 11:07:43;;;;;;;10.63;3.55;;;;;;;22.93;36.00;100315.25;6142404;23;20333;-81
2023/03/26 11:10:38;;;;;;;9.65;3.72;;;;;;;22.91;35.81;100328.19;6123732;23;20028;-84
2023/03/26 11:13:28;;;;;;;12.57;2.78;;;;;;;22.85;35.95;100310.97;6140620;23;20376;-84
2023/03/26 11:16:18;;;;;;;6.25;2.28;;;;;;;22.97;34.84;100294.81;6150697;23;20438;-84
2023/03/26 11:19:02;;;;;;;7.97;2.88;;;;;;;22.75;35.56;100273.59;6134399;23;20108;-83
2023/03/26 11:22:06;;;;;;;10.18;2.90;;;;;;;22.63;35.74;100236.72;6145704;23;20700;-83
2023/03/26 11:25:20;;;;;;;7.65;2.80;;;;;;;23.03;35.23;100278.53;6141599;23;20084;-85
2023/03/26 11:28:14;;;;;;;14.50;3.28;;;;;;;23.08;35.03;100258.88;6151054;23;20445;-82
2023/03/26 11:31:19;;;;;;;11.18;2.92;;;;;;;23.19;34.92;100266.25;6143180;23;20060;-87
2023/03/26 11:33:57;;;;;;;12.88;2.92;;;;;;;21.77;35.58;100052.66;6152887;23;20021;-83
2023/03/26 11:36:38;;;;;;;8.95;3.13;;;;;;;23.27;35.00;100272.41;6140265;23;20013;-84
2023/03/26 11:39:23;;;;;;;11.60;2.72;;;;;;;23.28;34.47;100260.50;6170253;23;20100;-84
2023/03/26 11:42:17;;;;;;;7.40;2.65;;;;;;;22.54;34.76;100155.00;6148133;23;20052;-82
2023/03/26 11:45:06;;;;;;;6.90;2.00;;;;;;;22.36;34.18;100132.34;6139727;23;20027;-87
2023/03/26 11:47:44;;;;;;;12.18;2.85;;;;;;;22.59;34.19;100179.50;6152914;23;20017;-86
2023/03/26 11:50:27;;;;;;;5.88;2.00;;;;;;;21.88;35.01;100105.97;6153493;23;20076;-81
2023/03/26 11:53:02;;;;;;;8.43;2.08;;;;;;;22.59;34.88;100239.84;6135018;23;20025;-83
2023/03/26 11:55:32;;;;;;;6.03;2.22;;;;;;;22.24;35.15;100193.63;6142380;23;20103;-84
2023/03/26 11:58:47;;;;;;;9.32;2.70;;;;;;;22.72;34.79;100233.47;6142250;23;20201;-82
2023/03/26 12:01:49;;;;;;;5.97;2.05;;;;;;;21.81;34.52;100026.03;6143062;23;20098;-82
2023/03/26 12:04:39;;;;;;;6.50;2.15;;;;;;;23.35;33.98;100209.78;6147424;23;20033;-83
2023/03/26 12:07:32;;;;;;;6.18;1.98;;;;;;;23.80;33.91;100222.91;6144074;23;20051;-82
2023/03/26 12:10:19;;;;;;;6.25;2.60;;;;;;;23.74;33.22;100169.63;6149262;23;20063;-82
2023/03/26 12:12:47;;;;;;;5.80;2.42;;;;;;;23.42;32.64;100088.63;6163263;23;20024;-84
2023/03/26 12:15:20;;;;;;;7.07;2.45;;;;;;;23.83;32.38;100139.25;6180965;23;20499;-83
2023/03/26 12:17:55;;;;;;;11.35;2.80;;;;;;;23.03;32.57;100025.94;6130453;23;20096;-82